Moorea Temae Airport

NTTM · Îles du Vent, French Polynesia

METAR anciennes NTTM · Aéroport de Moorea-Temae

Tu vois ci-dessous les METAR des derniers jours. Sélectionne une année pour parcourir les METAR plus anciens, à partir de l'année 2007.

20 juillet 2024

Temps Code Temps Temp. Vue Base cloud Vent METAR/SPECI
14:30
V
26 °C 10 km+ - 210° 210° 14 kt METAR NTAA 210030Z AUTO 21014KT 9999 FEW054 26/15 Q1016 TEMPO 20015G25KT
14:00
V
28 °C 10 km+ 6.200 ft 320° 320° 3 kt METAR NTAA 210000Z AUTO 32003KT 290V350 9999 BKN062 28/16 Q1016 TEMPO 20015G25KT
13:30
V
27 °C 10 km+ - 210° 210° 8 kt METAR NTAA 202330Z AUTO 21008KT 9999 SCT058 27/15 Q1016 TEMPO 20015G25KT
13:00
V
26 °C 10 km+ 5.200 ft 210° 210° 10 kt METAR NTAA 202300Z AUTO 21010KT 190V250 9999 BKN052 BKN070 26/16 Q1017 TEMPO 20015G25KT
12:30
V
26 °C 10 km+ 5.400 ft 300° 300° 9 kt METAR NTAA 202230Z AUTO 30009KT 9999 SCT048 BKN054 BKN066 26/18 Q1017 TEMPO 20015G25KT
12:00
V
27 °C 10 km+ 6.400 ft 350° 350° 11 kt METAR NTAA 202200Z AUTO 35011KT 9999 BKN064 27/18 Q1018 TEMPO 20015G25KT
11:30
V
27 °C 10 km+ - 010° 010° 9 kt METAR NTAA 202130Z AUTO 01009KT 9999 FEW064 27/17 Q1018 TEMPO 20015G25KT
11:00
V
27 °C 10 km+ - 020° 020° 8 kt METAR NTAA 202100Z AUTO 02008KT 9999 FEW064 27/16 Q1018 TEMPO 20015G25KT
10:30
V
26 °C 10 km+ - 300° 300° 3 kt METAR NTAA 202030Z AUTO 30003KT 260V350 CAVOK 26/16 Q1019 TEMPO 20015G25KT
10:00
V
26 °C 10 km+ - 250° 250° 4 kt METAR NTAA 202000Z AUTO 25004KT 200V360 CAVOK 26/17 Q1019 TEMPO 20015G25KT
09:30
V
25 °C 10 km+ - Var Var 3 kt METAR NTAA 201930Z AUTO VRB03KT CAVOK 25/17 Q1019 TEMPO 20015G25KT
09:00
V
25 °C 10 km+ - 190° 190° 8 kt METAR NTAA 201900Z AUTO 19008KT 9999 FEW068 25/17 Q1019 TEMPO 20015G25KT
08:30
V
25 °C 10 km+ - Var Var 3 kt METAR NTAA 201830Z AUTO VRB03KT CAVOK 25/17 Q1019 TEMPO 20015G25KT
08:00
V
24 °C 10 km+ - Var Var 2 kt METAR NTAA 201800Z AUTO VRB02KT CAVOK 24/17 Q1018 NOSIG
01:30
V
21 °C 10 km+ - 180° 180° 7 kt METAR NTAA 201130Z AUTO 18007KT CAVOK 21/16 Q1016 NOSIG
01:00
V
21 °C 10 km+ - 140° 140° 4 kt METAR NTAA 201100Z AUTO 14004KT 090V160 9999 FEW072 21/16 Q1016 NOSIG
00:30
V
22 °C 10 km+ - 180° 180° 7 kt METAR NTAA 201030Z AUTO 18007KT 9999 SCT070 22/16 Q1016 NOSIG
00:00
V
23 °C 10 km+ - 180° 180° 11 kt METAR NTAA 201000Z AUTO 18011KT 9999 SCT070 23/16 Q1017 NOSIG

19 juillet 2024

Temps Code Temps Temp. Vue Base cloud Vent METAR/SPECI
23:30
V
22 °C 10 km+ - 170° 170° 9 kt METAR NTAA 200930Z AUTO 17009KT 9999 SCT074 22/16 Q1017 NOSIG
23:00
V
22 °C 10 km+ - 170° 170° 7 kt METAR NTAA 200900Z AUTO 17007KT CAVOK 22/16 Q1017 NOSIG
22:30
V
23 °C 10 km+ - 180° 180° 9 kt METAR NTAA 200830Z AUTO 18009KT CAVOK 23/16 Q1017 NOSIG
22:00
V
23 °C 10 km+ - 170° 170° 9 kt METAR NTAA 200800Z AUTO 17009KT CAVOK 23/16 Q1016 NOSIG
21:30
V
23 °C 10 km+ - 190° 190° 10 kt METAR NTAA 200730Z AUTO 19010KT CAVOK 23/16 Q1016 NOSIG
21:00
V
24 °C 10 km+ - 180° 180° 9 kt METAR NTAA 200700Z AUTO 18009KT 140V200 CAVOK 24/16 Q1016 NOSIG
20:30
V
24 °C 10 km+ - 190° 190° 10 kt METAR NTAA 200630Z AUTO 19010KT CAVOK 24/16 Q1016 NOSIG
20:00
V
24 °C 10 km+ - 180° 180° 9 kt METAR NTAA 200600Z AUTO 18009KT 9999 FEW080 24/16 Q1015 NOSIG
19:30
V
24 °C 10 km+ - 190° 190° 17 kt METAR NTAA 200530Z AUTO 19017KT CAVOK 24/17 Q1015 BECMG VRB05KT
19:00
V
24 °C 10 km+ - 180° 180° 16 kt METAR NTAA 200500Z AUTO 18016KT 9999 SCT072 24/17 Q1015 BECMG VRB05KT
18:30
V
24 °C 10 km+ - 190° 190° 17 kt METAR NTAA 200430Z AUTO 19017KT 9999 FEW074 24/17 Q1015 BECMG VRB05KT
18:00
V
25 °C 10 km+ - 190° 190° 14 kt METAR NTAA 200400Z AUTO 19014KT CAVOK 25/17 Q1014 NOSIG
17:30
V
25 °C 10 km+ - 180° 180° 14 kt METAR NTAA 200330Z AUTO 18014KT 9999 FEW080 25/16 Q1014 NOSIG
17:00
V
25 °C 10 km+ - 180° 180° 17 kt METAR NTAA 200300Z AUTO 18017KT CAVOK 25/15 Q1014 TEMPO 18020G30KT
16:30
V
25 °C 10 km+ - 180° 180° 20 kt METAR NTAA 200230Z AUTO 18020KT CAVOK 25/16 Q1013 TEMPO 18020G30KT
16:00
V
26 °C 10 km+ - 180° 180° 23 kt METAR NTAA 200200Z AUTO 18023KT CAVOK 26/16 Q1013 TEMPO 18020G30KT
15:30
V
26 °C 10 km+ - 180° 180° 19 kt METAR NTAA 200130Z AUTO 18019KT 9999 FEW068 26/16 Q1013 TEMPO 18020G30KT
15:00
V
26 °C 10 km+ - 180° 180° 22 kt METAR NTAA 200100Z AUTO 18022KT CAVOK 26/17 Q1013 TEMPO 18020G30KT
14:30
V
26 °C 10 km+ - 190° 190° 22 kt METAR NTAA 200030Z AUTO 19022KT CAVOK 26/18 Q1013 TEMPO 18020G30KT
14:00
V
26 °C 10 km+ - 190° 190° 20 kt METAR NTAA 200000Z AUTO 19020KT 9999 FEW052 26/18 Q1013 TEMPO 18020G30KT
13:30
V
26 °C 10 km+ - 180° 180° 19 kt METAR NTAA 192330Z AUTO 18019KT 9999 SCT070 26/19 Q1013 TEMPO 18020G30KT
13:00
V
26 °C 10 km+ - 180° 180° 19 kt METAR NTAA 192300Z AUTO 18019KT 9999 FEW070 26/19 Q1013 NOSIG
12:30
V
26 °C 10 km+ - 180° 180° 18 kt METAR NTAA 192230Z AUTO 18018KT 9999 FEW018 SCT076 26/20 Q1014 NOSIG
12:00
V
25 °C 10 km+ - 190° 190° 19 kt METAR NTAA 192200Z AUTO 19019KT 9999 FEW024 SCT066 25/20 Q1014 NOSIG
11:30
V
25 °C 8 km - 180° 180° 15 kt METAR NTAA 192130Z AUTO 18015KT 8000 FEW025 SCT054 25/20 Q1014 NOSIG
11:00
V
25 °C 8 km 3.500 ft 180° 180° 12 kt METAR NTAA 192100Z AUTO 18012KT 8000 -RA FEW014 BKN035 BKN046 25/21 Q1015 TEMPO 3000 SHRA
10:30
I
23 °C 1,8 km 3.000 ft 200° 200° 17 kt METAR NTAA 192030Z AUTO 20017KT 1800 -RA BR SCT020 BKN030 BKN040 23/22 Q1015 BECMG 9999 NSW
10:00
V
24 °C 10 km+ 5.200 ft 180° 180° 14 kt METAR NTAA 192000Z AUTO 18014KT 9999 -RA FEW017 SCT028 BKN052 24/21 Q1015 TEMPO 3000 SHRA
09:30
V
24 °C 10 km+ 4.000 ft 170° 170° 14 kt METAR NTAA 191930Z AUTO 17014KT 9999 -RA FEW016 SCT024 BKN040 24/21 Q1015 TEMPO 3000 SHRA
09:00
V
25 °C 10 km+ 3.500 ft 200° 200° 16 kt METAR NTAA 191900Z AUTO 20016KT 9999 FEW022 SCT027 BKN035 25/21 Q1015 TEMPO 3000 SHRA
08:30
V
25 °C 10 km+ 3.300 ft 210° 210° 18 kt METAR NTAA 191830Z AUTO 21018KT 9999 SCT020 BKN033 BKN042 25/22 Q1015 TEMPO 3000 SHRA
08:00
V
25 °C 10 km+ 3.200 ft 180° 180° 11 kt METAR NTAA 191800Z AUTO 18011KT 9999 FEW019 SCT026 BKN032 25/22 Q1014 TEMPO 3000 SHRA
07:30
M
24 °C 6 km 1.900 ft 210° 210° 18 kt METAR NTAA 191730Z AUTO 21018KT 6000 -RA FEW012 BKN019 BKN024 24/22 Q1014 TEMPO 21015G25KT 3000 SHRA
07:00
V
24 °C 10 km+ 3.700 ft 190° 190° 13 kt METAR NTAA 191700Z AUTO 19013KT 9999 SCT021 SCT030 BKN037 24/21 Q1014 TEMPO 21015G25KT 3000 SHRA
06:30
V
25 °C 10 km+ 3.100 ft 210° 210° 15 kt METAR NTAA 191630Z AUTO 21015KT 9999 SCT023 BKN031 BKN044 25/21 Q1013 TEMPO 21015G25KT 3000 SHRA
06:00
V
25 °C 10 km+ 6.000 ft 190° 190° 13 kt METAR NTAA 191600Z AUTO 19013KT 9999 FEW017 BKN060 25/21 Q1013 TEMPO 21015G25KT 3000 SHRA
05:30
M
25 °C 10 km+ 2.800 ft 230° 230° 14 kt METAR NTAA 191530Z AUTO 23014KT 9999 BKN028 BKN035 BKN043 25/22 Q1013 TEMPO 21015G25KT 3000 SHRA
05:00
V
26 °C 10 km+ 4.900 ft 240° 240° 10 kt METAR NTAA 191500Z AUTO 24010KT 9999 SCT028 SCT033 BKN049 26/21 Q1012 TEMPO 21015G25KT 3000 SHRA
04:30
V
26 °C 10 km+ - 230° 230° 12 kt METAR NTAA 191430Z AUTO 23012KT 9999 FEW050 26/20 Q1012 TEMPO 21015G25KT 3000 SHRA
04:00
V
26 °C 10 km+ - 230° 230° 13 kt METAR NTAA 191400Z AUTO 23013KT 9999 FEW046 26/20 Q1012 TEMPO 21015G25KT 3000 SHRA
03:30
V
26 °C 10 km+ 4.100 ft 230° 230° 17 kt METAR NTAA 191330Z AUTO 23017KT 9999 FEW027 SCT035 BKN041 26/20 Q1012 TEMPO 21015G25KT 3000 SHRA
03:00
V
26 °C 10 km+ - 240° 240° 11 kt METAR NTAA 191300Z AUTO 24011KT 9999 FEW030 SCT040 26/20 Q1012 TEMPO 21015G25KT 3000 SHRA
02:30
V
26 °C 10 km+ - 230° 230° 13 kt METAR NTAA 191230Z AUTO 23013KT 9999 FEW031 SCT037 26/19 Q1012 TEMPO 21015G25KT 3000 SHRA
02:00
V
26 °C 10 km+ - 230° 230° 13 kt METAR NTAA 191200Z AUTO 23013KT 9999 FEW027 SCT041 26/20 Q1013 NOSIG
01:30
M
25 °C 10 km+ 2.400 ft 210° 210° 12 kt METAR NTAA 191130Z AUTO 21012KT 9999 BKN024 BKN038 25/21 Q1013 NOSIG
01:00
V
26 °C 10 km+ - 220° 220° 13 kt METAR NTAA 191100Z AUTO 22013KT 9999 SCT025 26/21 Q1013 NOSIG
00:30
V
25 °C 10 km+ - 210° 210° 12 kt METAR NTAA 191030Z AUTO 21012KT 9999 FEW024 25/21 Q1013 NOSIG
00:00
V
25 °C 10 km+ - 200° 200° 14 kt METAR NTAA 191000Z AUTO 20014KT 9999 FEW026 25/21 Q1013 NOSIG

18 juillet 2024

Temps Code Temps Temp. Vue Base cloud Vent METAR/SPECI
23:30
V
26 °C 10 km+ - 210° 210° 15 kt METAR NTAA 190930Z AUTO 21015KT 9999 FEW025 26/22 Q1014 NOSIG
23:00
V
26 °C 10 km+ - 210° 210° 16 kt METAR NTAA 190900Z AUTO 21016KT 9999 FEW024 26/22 Q1014 NOSIG
22:30
V
26 °C 10 km+ - 220° 220° 16 kt METAR NTAA 190830Z AUTO 22016KT 9999 FEW023 SCT050 26/22 Q1014 NOSIG
22:00
V
26 °C 10 km+ - 210° 210° 15 kt METAR NTAA 190800Z AUTO 21015KT 9999 FEW023 26/22 Q1014 TEMPO 22015G25KT 3000 SHRA
21:30
V
26 °C 10 km+ - 210° 210° 17 kt METAR NTAA 190730Z AUTO 21017KT 9999 FEW023 26/22 Q1014 TEMPO 22015G25KT 3000 SHRA
21:00
V
26 °C 10 km+ 5.800 ft 210° 210° 18 kt METAR NTAA 190700Z AUTO 21018KT 9999 SCT023 BKN058 26/22 Q1014 TEMPO 22015G25KT 3000 SHRA
20:30
V
26 °C 10 km+ - 210° 210° 18 kt METAR NTAA 190630Z AUTO 21018KT 9999 FEW021 26/22 Q1014 TEMPO 22015G25KT 3000 SHRA
20:00
V
26 °C 10 km+ - 220° 220° 18 kt METAR NTAA 190600Z AUTO 22018KT 9999 SCT021 SCT030 26/23 Q1014 TEMPO 22015G25KT 3000 SHRA
19:30
V
26 °C 10 km+ 5.400 ft 220° 220° 16 kt METAR NTAA 190530Z AUTO 22016KT 9999 SCT022 SCT030 BKN054 26/23 Q1013 TEMPO 3000 SHRA BECMG 24015G25KT
19:00
M
26 °C 10 km+ 2.200 ft 220° 220° 18 kt METAR NTAA 190500Z AUTO 22018KT 9999 BKN022 BKN031 BKN043 26/24 Q1013 TEMPO 3000 SHRA BECMG 24015G25KT
18:30
M
26 °C 10 km+ 3.000 ft 230° 230° 12 kt METAR NTAA 190430Z AUTO 23012KT 9999 R04/1400U -RA FEW019 BKN030 BKN042 26/24 Q1013 TEMPO 3000 SHRA BECMG 24015G25KT
18:00
V
27 °C 10 km+ - 230° 230° 16 kt METAR NTAA 190400Z AUTO 23016KT 9999 FEW045 SCT056 27/23 Q1013 TEMPO 3000 SHRA BECMG 24015G25KT
17:30
V
27 °C 10 km+ 5.600 ft 230° 230° 14 kt METAR NTAA 190330Z AUTO 23014KT 9999 SCT048 BKN056 27/22 Q1013 TEMPO 3000 SHRA BECMG 24015G25KT
17:00
V
27 °C 10 km+ 5.600 ft 230° 230° 12 kt METAR NTAA 190300Z AUTO 23012KT 9999 FEW030 SCT040 BKN056 27/22 Q1012 TEMPO 3000 SHRA BECMG 24015G25KT
16:30
V
28 °C 10 km+ 3.800 ft 230° 230° 7 kt METAR NTAA 190230Z AUTO 23007KT 9999 FEW032 BKN038 BKN045 28/22 Q1012 TEMPO 3000 SHRA BECMG 24015G25KT
16:00
V
28 °C 10 km+ 5.800 ft 290° 290° 9 kt METAR NTAA 190200Z AUTO 29009KT 240V310 9999 SCT042 SCT049 BKN058 28/22 Q1011 TEMPO 3000 SHRA BECMG 24015G25KT
15:30
V
29 °C 10 km+ - 280° 280° 12 kt METAR NTAA 190130Z AUTO 28012KT 9999 FEW028 29/23 Q1011 TEMPO 3000 SHRA BECMG 24015G25KT
15:00
V
29 °C 10 km+ - 260° 260° 6 kt METAR NTAA 190100Z AUTO 26006KT 140V270 9999 FEW030 SCT038 29/22 Q1011 TEMPO 3000 SHRA BECMG 24015G25KT
14:30
V
29 °C 10 km+ - Var Var 3 kt METAR NTAA 190030Z AUTO VRB03KT 9999 FEW026 29/22 Q1011 TEMPO 3000 SHRA BECMG 24015G25KT
14:00
V
28 °C 10 km+ 4.400 ft 300° 300° 11 kt METAR NTAA 190000Z AUTO 30011KT 9999 FEW030 BKN044 BKN056 28/23 Q1012 NOSIG
13:30
V
28 °C 10 km+ 5.800 ft 310° 310° 10 kt METAR NTAA 182330Z AUTO 31010KT 9999 FEW020 BKN058 28/23 Q1012 NOSIG
13:00
V
28 °C 10 km+ - 320° 320° 8 kt METAR NTAA 182300Z AUTO 32008KT 9999 FEW020 28/23 Q1012 BECMG 02010KT
12:30
V
28 °C 10 km+ - 320° 320° 7 kt METAR NTAA 182230Z AUTO 32007KT 9999 SCT021 SCT060 28/23 Q1013 BECMG 02010KT
12:00
M
29 °C 10 km+ 2.000 ft 330° 330° 6 kt METAR NTAA 182200Z AUTO 33006KT 9999 BKN020 BKN028 BKN039 29/22 Q1013 NOSIG
11:30
M
30 °C 10 km+ 2.800 ft 350° 350° 6 kt METAR NTAA 182130Z AUTO 35006KT 9999 SCT019 BKN028 BKN037 30/24 Q1013 NOSIG
11:00
V
29 °C 10 km+ - 350° 350° 4 kt METAR NTAA 182100Z AUTO 35004KT 310V020 9999 SCT023 29/23 Q1014 NOSIG
10:30
V
28 °C 10 km+ - 350° 350° 6 kt METAR NTAA 182030Z AUTO 35006KT 9999 FEW019 28/23 Q1014 NOSIG
10:00
M
29 °C 10 km+ 2.900 ft 340° 340° 7 kt METAR NTAA 182000Z AUTO 34007KT 9999 SCT020 BKN029 BKN044 29/24 Q1014 NOSIG
09:30
V
28 °C 10 km+ - 340° 340° 4 kt METAR NTAA 181930Z AUTO 34004KT 310V020 9999 SCT020 SCT025 28/23 Q1015 NOSIG
09:00
M
28 °C 10 km+ 2.100 ft 340° 340° 5 kt METAR NTAA 181900Z AUTO 34005KT 9999 BKN021 BKN028 BKN034 28/23 Q1015 NOSIG
08:30
M
28 °C 10 km+ 2.700 ft 340° 340° 6 kt METAR NTAA 181830Z AUTO 34006KT 9999 SCT020 BKN027 28/23 Q1015 NOSIG
08:00
M
27 °C 10 km+ 2.000 ft 350° 350° 6 kt METAR NTAA 181800Z AUTO 35006KT 9999 BKN020 BKN026 BKN034 27/23 Q1014 NOSIG
07:30
M
26 °C 10 km+ 1.900 ft 060° 060° 4 kt METAR NTAA 181730Z AUTO 06004KT 020V110 9999 BKN019 BKN024 BKN029 26/22 Q1014 NOSIG
07:00
V
25 °C 10 km+ - Var Var 3 kt METAR NTAA 181700Z AUTO VRB03KT 9999 FEW020 SCT047 25/22 Q1014 NOSIG
06:30
V
25 °C 10 km+ 4.500 ft 010° 010° 3 kt METAR NTAA 181630Z AUTO 01003KT 320V100 9999 FEW021 BKN045 25/22 Q1014 NOSIG
06:00
M
26 °C 10 km+ 2.600 ft Var Var 2 kt METAR NTAA 181600Z AUTO VRB02KT 9999 SCT021 BKN026 BKN032 26/22 Q1013 NOSIG
05:30
M
25 °C 10 km+ 2.200 ft Var Var 2 kt METAR NTAA 181530Z AUTO VRB02KT 9999 BKN022 BKN029 BKN036 25/21 Q1013 NOSIG
05:00
M
25 °C 10 km+ 2.300 ft 060° 060° 6 kt METAR NTAA 181500Z AUTO 06006KT 9999 BKN023 BKN030 25/21 Q1013 NOSIG
04:30
M
25 °C 10 km+ 2.600 ft 060° 060° 6 kt METAR NTAA 181430Z AUTO 06006KT 9999 BKN026 BKN034 25/21 Q1012 NOSIG
04:00
V
25 °C 10 km+ 3.300 ft 060° 060° 7 kt METAR NTAA 181400Z AUTO 06007KT 020V080 9999 SCT024 BKN033 25/21 Q1012 NOSIG
03:30
M
25 °C 10 km+ 2.700 ft 070° 070° 4 kt METAR NTAA 181330Z AUTO 07004KT 9999 BKN027 BKN033 25/21 Q1013 NOSIG
03:00
V
25 °C 10 km+ - 070° 070° 4 kt METAR NTAA 181300Z AUTO 07004KT 030V130 9999 FEW026 25/20 Q1013 NOSIG
02:30
V
25 °C 10 km+ - 080° 080° 4 kt METAR NTAA 181230Z AUTO 08004KT 040V120 9999 FEW024 25/20 Q1013 NOSIG
02:00
V
25 °C 10 km+ - 040° 040° 4 kt METAR NTAA 181200Z AUTO 04004KT 010V080 9999 FEW026 25/20 Q1013 NOSIG
01:30
V
25 °C 10 km+ - 050° 050° 5 kt METAR NTAA 181130Z AUTO 05005KT 9999 FEW025 25/20 Q1013 NOSIG
01:00
V
25 °C 10 km+ - 040° 040° 6 kt METAR NTAA 181100Z AUTO 04006KT CAVOK 25/20 Q1013 NOSIG
00:30
V
25 °C 10 km+ - 050° 050° 7 kt METAR NTAA 181030Z AUTO 05007KT 020V080 CAVOK 25/19 Q1013 NOSIG
00:00
V
25 °C 10 km+ - 050° 050° 6 kt METAR NTAA 181000Z AUTO 05006KT 030V090 CAVOK 25/20 Q1013 NOSIG

17 juillet 2024

Temps Code Temps Temp. Vue Base cloud Vent METAR/SPECI
23:30
V
25 °C 10 km+ - 060° 060° 6 kt METAR NTAA 180930Z AUTO 06006KT CAVOK 25/20 Q1013 NOSIG
23:00
V
24 °C 10 km+ - 070° 070° 5 kt METAR NTAA 180900Z AUTO 07005KT CAVOK 24/20 Q1014 NOSIG
22:30
V
24 °C 10 km+ - 080° 080° 5 kt METAR NTAA 180830Z AUTO 08005KT 9999 FEW024 24/20 Q1014 NOSIG
22:00
V
25 °C 10 km+ - Var Var 3 kt METAR NTAA 180800Z AUTO VRB03KT 9999 FEW024 SCT066 25/21 Q1014 NOSIG
21:30
V
25 °C 10 km+ - 150° 150° 3 kt METAR NTAA 180730Z AUTO 15003KT 9999 FEW068 25/21 Q1015 NOSIG
21:00
V
25 °C 10 km+ 6.600 ft 150° 150° 4 kt METAR NTAA 180700Z AUTO 15004KT 9999 FEW020 BKN066 25/22 Q1015 NOSIG
20:30
V
25 °C 10 km+ 6.600 ft 170° 170° 3 kt METAR NTAA 180630Z AUTO 17003KT 9999 BKN066 25/22 Q1014 NOSIG
20:00
V
26 °C 10 km+ 6.400 ft 200° 200° 4 kt METAR NTAA 180600Z AUTO 20004KT 9999 OVC064 26/22 Q1014 NOSIG
Signaler les modifications